Terminal Aerodrome Forecast
Issued by NWS Bismarck, ND

Home | Current Version | Previous Version | Graphics & Text | Print | Product List | Glossary On
Versions: 1 2 3 4 5 6 7 8 9 10 11 12 13 14 15 16 17
000
FTUS43 KBIS 131100
TAFBIS
TAF
KBIS 131139Z 1312/1412 34016G23KT P6SM SCT025
     FM131500 34016G24KT P6SM BKN035
     FM140200 34010KT P6SM SCT035 BKN070
     FM140700 36008KT P6SM SCT020 BKN035=

USA.gov is the U.S. government's official web portal to all federal, state and local government web resources and services.